createdAt,value
2019-02-03T00:00:27.383Z,797.04
2019-02-03T00:01:27.390Z,797.01
2019-02-03T00:02:27.392Z,797.01
2019-02-03T00:03:27.397Z,797.07
2019-02-03T00:04:27.403Z,797.06
2019-02-03T00:05:27.408Z,797.06
2019-02-03T00:06:27.416Z,797.04
2019-02-03T00:07:27.417Z,797.03
2019-02-03T00:08:27.423Z,797.04
2019-02-03T00:09:27.427Z,797.03
2019-02-03T00:10:27.437Z,797.06
2019-02-03T00:11:27.441Z,797.06
2019-02-03T00:12:27.442Z,797.06
2019-02-03T00:13:27.451Z,797.09
2019-02-03T00:14:27.454Z,797.11
2019-02-03T00:15:27.462Z,797.11
2019-02-03T00:16:27.463Z,797.09
2019-02-03T00:17:27.470Z,797.09
2019-02-03T00:18:27.477Z,797.07
2019-02-03T00:19:27.481Z,797.09
2019-02-03T00:20:27.485Z,797.06
2019-02-03T00:21:27.492Z,797.07
2019-02-03T00:22:27.494Z,797.03
2019-02-03T00:23:27.501Z,797.08
2019-02-03T00:24:27.504Z,797.05
2019-02-03T00:25:27.511Z,797.07
2019-02-03T00:26:27.512Z,797.07
2019-02-03T00:27:27.520Z,797.01
2019-02-03T00:28:27.524Z,797.04
2019-02-03T00:29:27.531Z,797.04
2019-02-03T00:30:27.535Z,797.06
2019-02-03T00:31:27.539Z,797.02
2019-02-03T00:32:27.545Z,797.01
2019-02-03T00:33:27.549Z,797.04
2019-02-03T00:34:27.557Z,797.03
2019-02-03T00:35:27.560Z,797.01
2019-02-03T00:36:27.564Z,797.04
2019-02-03T00:37:27.569Z,796.99
2019-02-03T00:38:27.574Z,797.01
2019-02-03T00:39:27.584Z,796.99
2019-02-03T00:40:27.663Z,797.03
2019-02-03T00:41:27.614Z,797.00
2019-02-03T00:42:27.597Z,797.07
2019-02-03T00:43:27.601Z,796.99
2019-02-03T00:44:27.605Z,796.99
2019-02-03T00:45:27.613Z,797.01
2019-02-03T00:46:27.614Z,797.03
2019-02-03T00:47:27.622Z,797.05
2019-02-03T00:48:27.714Z,797.06
2019-02-03T00:49:27.629Z,797.05
2019-02-03T00:50:27.637Z,797.07
2019-02-03T00:51:27.640Z,797.08
2019-02-03T00:52:27.648Z,797.08
2019-02-03T00:53:27.650Z,797.09
2019-02-03T00:54:27.654Z,797.10
2019-02-03T00:55:27.660Z,797.13
2019-02-03T00:56:27.667Z,797.13
2019-02-03T00:57:27.674Z,797.18
2019-02-03T00:58:27.675Z,797.16
2019-02-03T00:59:27.680Z,797.14
2019-02-03T01:00:27.685Z,797.17
2019-02-03T01:01:27.707Z,797.16
2019-02-03T01:02:27.694Z,797.15
2019-02-03T01:03:27.701Z,797.18
2019-02-03T01:04:27.705Z,797.16
2019-02-03T01:05:27.709Z,797.22
2019-02-03T01:06:27.714Z,797.16
2019-02-03T01:07:27.967Z,797.17
2019-02-03T01:08:27.726Z,797.21
2019-02-03T01:09:27.728Z,797.19
2019-02-03T01:10:27.733Z,797.25
2019-02-03T01:11:27.738Z,797.26
2019-02-03T01:12:27.742Z,797.26
2019-02-03T01:13:27.750Z,797.24
2019-02-03T01:14:27.755Z,797.28
2019-02-03T01:15:27.759Z,797.24
2019-02-03T01:16:27.762Z,797.29
2019-02-03T01:17:27.767Z,797.32
2019-02-03T01:18:27.774Z,797.31
2019-02-03T01:19:27.778Z,797.30
2019-02-03T01:20:27.782Z,797.31
2019-02-03T01:21:27.789Z,797.41
2019-02-03T01:22:27.794Z,797.35
2019-02-03T01:23:27.797Z,797.37
2019-02-03T01:24:27.801Z,797.43
2019-02-03T01:25:27.808Z,797.43
2019-02-03T01:26:27.812Z,797.48
2019-02-03T01:27:27.830Z,797.47
2019-02-03T01:28:27.820Z,797.46
2019-02-03T01:29:27.826Z,797.48
2019-02-03T01:30:27.832Z,797.47
2019-02-03T01:31:27.839Z,797.49
2019-02-03T01:32:27.843Z,797.51
2019-02-03T01:33:27.845Z,797.52
2019-02-03T01:34:27.852Z,797.55
2019-02-03T01:35:27.855Z,797.56
2019-02-03T01:36:27.859Z,797.60
2019-02-03T01:37:38.954Z,797.57
2019-02-03T01:38:27.872Z,797.55
2019-02-03T01:39:27.882Z,797.57
2019-02-03T01:40:27.878Z,797.59
2019-02-03T01:41:27.889Z,797.61
2019-02-03T01:42:27.890Z,797.57
2019-02-03T01:43:27.894Z,797.59
2019-02-03T01:44:27.904Z,797.56
2019-02-03T01:45:27.904Z,797.61
2019-02-03T01:46:27.908Z,797.60
2019-02-03T01:47:27.916Z,797.60
2019-02-03T01:48:27.921Z,797.63
2019-02-03T01:49:27.922Z,797.63
2019-02-03T01:50:27.930Z,797.63
2019-02-03T01:51:27.933Z,797.63
2019-02-03T01:52:27.935Z,797.65
2019-02-03T01:53:27.941Z,797.67
2019-02-03T01:54:27.948Z,797.67
2019-02-03T01:55:27.953Z,797.70
2019-02-03T01:56:27.962Z,797.75
2019-02-03T01:57:27.961Z,797.72
2019-02-03T01:58:27.968Z,797.70
2019-02-03T01:59:27.970Z,797.72
2019-02-03T02:00:27.977Z,797.71
2019-02-03T02:01:27.978Z,797.77
2019-02-03T02:02:27.983Z,797.80
2019-02-03T02:03:27.987Z,797.79
2019-02-03T02:04:27.991Z,797.79
2019-02-03T02:05:27.996Z,797.80
2019-02-03T02:06:28.005Z,797.82
2019-02-03T02:07:28.007Z,797.81
2019-02-03T02:08:28.014Z,797.80
2019-02-03T02:09:28.018Z,797.81
2019-02-03T02:10:28.020Z,797.86
2019-02-03T02:11:28.025Z,797.88
2019-02-03T02:12:28.028Z,797.81
2019-02-03T02:13:28.034Z,797.83
2019-02-03T02:14:28.038Z,797.82
2019-02-03T02:15:28.044Z,797.80
2019-02-03T02:16:28.047Z,797.87
2019-02-03T02:17:28.051Z,797.88
2019-02-03T02:18:28.056Z,797.89
2019-02-03T02:19:28.060Z,797.89
2019-02-03T02:20:28.069Z,797.92
2019-02-03T02:21:28.068Z,797.89
2019-02-03T02:22:28.077Z,797.89
2019-02-03T02:23:28.079Z,797.89
2019-02-03T02:24:28.084Z,797.93
2019-02-03T02:25:28.086Z,797.96
2019-02-03T02:26:28.092Z,797.95
2019-02-03T02:27:28.096Z,797.98
2019-02-03T02:28:28.100Z,798.01
2019-02-03T02:29:28.106Z,797.99
2019-02-03T02:30:28.168Z,798.03
2019-02-03T02:31:28.113Z,798.05
2019-02-03T02:32:28.117Z,798.04
2019-02-03T02:33:28.121Z,798.07
2019-02-03T02:34:28.135Z,798.08
2019-02-03T02:35:28.135Z,798.08
2019-02-03T02:36:28.138Z,798.12
2019-02-03T02:37:28.152Z,798.08
2019-02-03T02:38:28.145Z,798.12
2019-02-03T02:39:28.153Z,798.14
2019-02-03T02:40:28.155Z,798.20
2019-02-03T02:41:28.158Z,798.21
2019-02-03T02:42:28.168Z,798.23
2019-02-03T02:43:28.169Z,798.24
2019-02-03T02:44:28.176Z,798.25
2019-02-03T02:45:28.177Z,798.27
2019-02-03T02:46:28.189Z,798.26
2019-02-03T02:47:28.186Z,798.25
2019-02-03T02:48:28.192Z,798.27
2019-02-03T02:49:28.197Z,798.28
2019-02-03T02:50:28.198Z,798.29
2019-02-03T02:51:28.206Z,798.33
2019-02-03T02:52:28.219Z,798.32
2019-02-03T02:53:28.214Z,798.33
2019-02-03T02:54:28.216Z,798.33
2019-02-03T02:55:28.221Z,798.37
2019-02-03T02:56:28.224Z,798.39
2019-02-03T02:57:28.229Z,798.38
2019-02-03T02:58:28.241Z,798.35
2019-02-03T02:59:28.238Z,798.39
2019-02-03T03:00:28.241Z,798.37
2019-02-03T03:01:28.246Z,798.34
2019-02-03T03:02:28.252Z,798.38
2019-02-03T03:03:28.258Z,798.40
2019-02-03T03:04:28.264Z,798.42
2019-02-03T03:05:28.264Z,798.43
2019-02-03T03:06:28.271Z,798.44
2019-02-03T03:07:28.273Z,798.42
2019-02-03T03:08:28.276Z,798.41
2019-02-03T03:09:28.284Z,798.42
2019-02-03T03:10:28.284Z,798.45
2019-02-03T03:11:28.291Z,798.46
2019-02-03T03:12:28.295Z,798.45
2019-02-03T03:13:28.302Z,798.50
2019-02-03T03:14:28.303Z,798.45
2019-02-03T03:15:28.309Z,798.47
2019-02-03T03:16:28.314Z,798.48
2019-02-03T03:17:28.319Z,798.48
2019-02-03T03:18:28.320Z,798.48
2019-02-03T03:19:28.326Z,798.50
2019-02-03T03:20:28.329Z,798.53
2019-02-03T03:21:28.335Z,798.54
2019-02-03T03:22:28.345Z,798.54
2019-02-03T03:23:28.343Z,798.56
2019-02-03T03:24:28.350Z,798.54
2019-02-03T03:25:28.350Z,798.53
2019-02-03T03:26:28.355Z,798.51
2019-02-03T03:27:28.360Z,798.58
2019-02-03T03:28:28.362Z,798.52
2019-02-03T03:29:28.370Z,798.58
2019-02-03T03:30:28.382Z,798.57
2019-02-03T03:31:28.379Z,798.59
2019-02-03T03:32:28.385Z,798.60
2019-02-03T03:33:28.397Z,798.59
2019-02-03T03:34:28.392Z,798.62
2019-02-03T03:35:28.394Z,798.63
2019-02-03T03:36:28.399Z,798.63
2019-02-03T03:37:28.403Z,798.65
2019-02-03T03:38:32.151Z,798.70
2019-02-03T03:39:28.409Z,798.74
2019-02-03T03:40:28.412Z,798.75
2019-02-03T03:41:28.420Z,798.75
2019-02-03T03:42:28.422Z,798.77
2019-02-03T03:43:28.428Z,798.80
2019-02-03T03:44:28.430Z,798.80
2019-02-03T03:45:28.443Z,798.74
2019-02-03T03:46:28.445Z,798.79
2019-02-03T03:47:28.442Z,798.76
2019-02-03T03:48:28.448Z,798.79
2019-02-03T03:49:28.451Z,798.82
2019-02-03T03:50:28.458Z,798.82
2019-02-03T03:51:28.461Z,798.85
2019-02-03T03:52:28.461Z,798.84
2019-02-03T03:53:28.471Z,798.85
2019-02-03T03:54:28.475Z,798.91
2019-02-03T03:55:28.477Z,798.90
2019-02-03T03:56:28.479Z,798.96
2019-02-03T03:57:28.483Z,798.91
2019-02-03T03:58:28.487Z,798.96
2019-02-03T03:59:28.509Z,799.00
2019-02-03T04:00:28.496Z,799.02
2019-02-03T04:01:28.498Z,799.02
2019-02-03T04:02:28.504Z,799.03
2019-02-03T04:03:28.507Z,799.05
2019-02-03T04:04:28.516Z,799.07
2019-02-03T04:05:28.519Z,799.08
2019-02-03T04:06:28.524Z,799.10
2019-02-03T04:07:28.525Z,799.11
2019-02-03T04:08:28.529Z,799.15
2019-02-03T04:09:28.531Z,799.11
2019-02-03T04:10:28.539Z,799.11
2019-02-03T04:11:28.542Z,799.12
2019-02-03T04:12:28.550Z,799.16
2019-02-03T04:13:28.551Z,799.19
2019-02-03T04:14:28.555Z,799.20
2019-02-03T04:15:28.566Z,799.20
2019-02-03T04:16:28.562Z,799.23
2019-02-03T04:17:28.565Z,799.28
2019-02-03T04:18:28.570Z,799.28
2019-02-03T04:19:28.577Z,799.30
2019-02-03T04:20:28.586Z,799.34
2019-02-03T04:21:28.582Z,799.37
2019-02-03T04:22:28.590Z,799.33
2019-02-03T04:23:28.594Z,799.34
2019-02-03T04:24:28.595Z,799.36
2019-02-03T04:25:28.619Z,799.38
2019-02-03T04:26:28.609Z,799.42
2019-02-03T04:27:28.606Z,799.40
2019-02-03T04:28:28.610Z,799.42
2019-02-03T04:29:28.621Z,799.40
2019-02-03T04:30:28.623Z,799.46
2019-02-03T04:31:28.625Z,799.46
2019-02-03T04:32:28.627Z,799.43
2019-02-03T04:33:28.631Z,799.41
2019-02-03T04:34:29.902Z,799.41
2019-02-03T04:35:28.638Z,799.45
2019-02-03T04:36:28.643Z,799.48
2019-02-03T04:37:28.648Z,799.51
2019-02-03T04:38:28.654Z,799.52
2019-02-03T04:39:28.656Z,799.49
2019-02-03T04:40:28.657Z,799.51
2019-02-03T04:41:28.664Z,799.54
2019-02-03T04:42:28.664Z,799.55
2019-02-03T04:43:28.672Z,799.55
2019-02-03T04:44:28.674Z,799.55
2019-02-03T04:45:28.678Z,799.56
2019-02-03T04:46:28.683Z,799.55
2019-02-03T04:47:28.699Z,799.58
2019-02-03T04:48:28.691Z,799.60
2019-02-03T04:49:28.692Z,799.60
2019-02-03T04:50:28.700Z,799.60
2019-02-03T04:51:28.705Z,799.66
2019-02-03T04:52:28.704Z,799.71
2019-02-03T04:53:28.708Z,799.71
2019-02-03T04:54:28.720Z,799.70
2019-02-03T04:55:28.719Z,799.71
2019-02-03T04:56:28.724Z,799.69
2019-02-03T04:57:28.727Z,799.73
2019-02-03T04:58:28.731Z,799.76
2019-02-03T04:59:28.776Z,799.82
2019-02-03T05:00:28.743Z,799.80
2019-02-03T05:01:28.740Z,799.81
2019-02-03T05:02:28.745Z,799.81
2019-02-03T05:03:28.755Z,799.80
2019-02-03T05:04:28.754Z,799.84
2019-02-03T05:05:28.758Z,799.84
2019-02-03T05:06:28.764Z,799.81
2019-02-03T05:07:28.769Z,799.81
2019-02-03T05:08:28.769Z,799.82
2019-02-03T05:09:28.773Z,799.85
2019-02-03T05:10:28.777Z,799.87
2019-02-03T05:11:28.788Z,799.87
2019-02-03T05:12:28.786Z,799.94
2019-02-03T05:13:28.790Z,799.90
2019-02-03T05:14:28.799Z,799.92
2019-02-03T05:15:28.804Z,799.92
2019-02-03T05:16:28.801Z,799.91
2019-02-03T05:17:28.809Z,799.92
2019-02-03T05:18:28.811Z,799.91
2019-02-03T05:19:28.819Z,799.91
2019-02-03T05:20:28.819Z,799.96
2019-02-03T05:21:28.823Z,799.93
2019-02-03T05:22:28.835Z,799.90
2019-02-03T05:23:28.831Z,799.95
2019-02-03T05:24:28.842Z,799.99
2019-02-03T05:25:28.859Z,800.00
2019-02-03T05:26:28.845Z,800.01
2019-02-03T05:27:28.848Z,800.03
2019-02-03T05:28:28.853Z,800.01
2019-02-03T05:29:28.853Z,800.00
2019-02-03T05:30:28.858Z,800.01
2019-02-03T05:31:28.867Z,800.05
2019-02-03T05:32:28.867Z,800.08
2019-02-03T05:33:28.879Z,800.11
2019-02-03T05:34:28.875Z,800.08
2019-02-03T05:35:28.878Z,800.11
2019-02-03T05:36:28.882Z,800.12
2019-02-03T05:37:28.886Z,800.12
2019-02-03T05:38:28.890Z,800.09
2019-02-03T05:39:28.896Z,800.08
2019-02-03T05:40:28.898Z,800.10
2019-02-03T05:41:28.901Z,800.17
2019-02-03T05:42:28.906Z,800.16
2019-02-03T05:43:28.911Z,800.19
2019-02-03T05:44:28.912Z,800.19
2019-02-03T05:45:28.923Z,800.23
2019-02-03T05:46:28.929Z,800.24
2019-02-03T05:47:28.952Z,800.21
2019-02-03T05:48:28.938Z,800.21
2019-02-03T05:49:28.935Z,800.20
2019-02-03T05:50:28.938Z,800.21
2019-02-03T05:51:28.943Z,800.24
2019-02-03T05:52:28.945Z,800.22
2019-02-03T05:53:28.952Z,800.24
2019-02-03T05:54:28.955Z,800.28
2019-02-03T05:55:28.959Z,800.29
2019-02-03T05:56:28.963Z,800.29
2019-02-03T05:57:28.964Z,800.32
2019-02-03T05:58:28.972Z,800.34
2019-02-03T05:59:28.978Z,800.36
2019-02-03T06:00:28.976Z,800.37
2019-02-03T06:01:28.981Z,800.42
2019-02-03T06:02:28.985Z,800.39
2019-02-03T06:03:28.991Z,800.39
2019-02-03T06:04:28.994Z,800.41
2019-02-03T06:05:29.159Z,800.45
2019-02-03T06:06:29.003Z,800.49
2019-02-03T06:07:29.005Z,800.45
2019-02-03T06:08:29.014Z,800.47
2019-02-03T06:09:36.230Z,800.47
2019-02-03T06:10:29.016Z,800.51
2019-02-03T06:11:29.021Z,800.49
2019-02-03T06:12:29.024Z,800.48
2019-02-03T06:13:29.028Z,800.49
2019-02-03T06:14:29.035Z,800.51
2019-02-03T06:15:29.036Z,800.57
2019-02-03T06:16:29.042Z,800.58
2019-02-03T06:17:29.045Z,800.61
2019-02-03T06:18:29.049Z,800.62
2019-02-03T06:19:29.145Z,800.62
2019-02-03T06:20:29.056Z,800.67
2019-02-03T06:21:29.059Z,800.69
2019-02-03T06:22:29.068Z,800.72
2019-02-03T06:23:29.067Z,800.73
2019-02-03T06:24:29.069Z,800.72
2019-02-03T06:25:29.075Z,800.70
2019-02-03T06:26:29.078Z,800.74
2019-02-03T06:27:29.085Z,800.80
2019-02-03T06:28:29.088Z,800.78
2019-02-03T06:29:29.093Z,800.78
2019-02-03T06:30:29.093Z,800.78
2019-02-03T06:31:29.097Z,800.75
2019-02-03T06:32:29.100Z,800.80
2019-02-03T06:33:29.104Z,800.81
2019-02-03T06:34:29.109Z,800.83
2019-02-03T06:35:29.114Z,800.88
2019-02-03T06:36:29.174Z,800.87
2019-02-03T06:37:29.119Z,800.86
2019-02-03T06:38:29.125Z,800.92
2019-02-03T06:39:29.252Z,800.96
2019-02-03T06:40:29.130Z,800.94
2019-02-03T06:41:29.138Z,800.98
2019-02-03T06:42:29.146Z,800.96
2019-02-03T06:43:29.141Z,800.97
2019-02-03T06:44:29.145Z,800.99
2019-02-03T06:45:29.149Z,800.97
2019-02-03T06:46:29.152Z,801.00
2019-02-03T06:47:29.156Z,801.03
2019-02-03T06:48:29.160Z,801.05
2019-02-03T06:49:29.164Z,801.03
2019-02-03T06:50:29.179Z,801.03
2019-02-03T06:51:29.172Z,801.05
2019-02-03T06:52:29.176Z,801.10
2019-02-03T06:53:29.179Z,801.09
2019-02-03T06:54:29.182Z,801.12
2019-02-03T06:55:29.187Z,801.12
2019-02-03T06:56:29.196Z,801.18
2019-02-03T06:57:29.197Z,801.17
2019-02-03T06:58:29.200Z,801.22
2019-02-03T06:59:29.206Z,801.26
2019-02-03T07:00:29.207Z,801.24
2019-02-03T07:01:29.208Z,801.24
2019-02-03T07:02:29.214Z,801.28
2019-02-03T07:03:29.216Z,801.34
2019-02-03T07:04:29.220Z,801.37
2019-02-03T07:05:29.225Z,801.33
2019-02-03T07:06:29.230Z,801.40
2019-02-03T07:07:29.232Z,801.40
2019-02-03T07:08:29.236Z,801.44
2019-02-03T07:09:29.240Z,801.44
2019-02-03T07:10:29.244Z,801.46
2019-02-03T07:11:29.248Z,801.49
2019-02-03T07:12:29.258Z,801.49
2019-02-03T07:13:29.257Z,801.52
2019-02-03T07:14:29.259Z,801.53
2019-02-03T07:15:29.263Z,801.55
2019-02-03T07:16:40.180Z,801.56
2019-02-03T07:17:29.273Z,801.54
2019-02-03T07:18:29.275Z,801.59
2019-02-03T07:19:29.280Z,801.64
2019-02-03T07:20:29.282Z,801.67
2019-02-03T07:21:29.292Z,801.70
2019-02-03T07:22:29.290Z,801.67
2019-02-03T07:23:29.294Z,801.73
2019-02-03T07:24:29.297Z,801.73
2019-02-03T07:25:29.302Z,801.78
2019-02-03T07:26:29.311Z,801.79
2019-02-03T07:27:29.311Z,801.84
2019-02-03T07:28:29.313Z,801.85
2019-02-03T07:29:29.318Z,801.89
2019-02-03T07:30:29.321Z,801.87
2019-02-03T07:31:29.324Z,801.92
2019-02-03T07:32:29.328Z,801.89
2019-02-03T07:33:29.331Z,801.90
2019-02-03T07:34:29.336Z,801.91
2019-02-03T07:35:29.340Z,801.93
2019-02-03T07:36:29.344Z,801.95
2019-02-03T07:37:29.346Z,801.95
2019-02-03T07:38:29.351Z,801.94
2019-02-03T07:39:29.358Z,802.00
2019-02-03T07:40:29.360Z,802.00
2019-02-03T07:41:29.362Z,802.05
2019-02-03T07:42:29.368Z,802.06
2019-02-03T07:43:29.372Z,802.04
2019-02-03T07:44:29.376Z,802.12
2019-02-03T07:45:29.378Z,802.11
2019-02-03T07:46:29.383Z,802.11
2019-02-03T07:47:29.388Z,802.16
2019-02-03T07:48:29.390Z,802.17
2019-02-03T07:49:29.393Z,802.14
2019-02-03T07:50:29.397Z,802.14
2019-02-03T07:51:29.401Z,802.16
2019-02-03T07:52:29.406Z,802.18
2019-02-03T07:53:29.419Z,802.24
2019-02-03T07:54:29.413Z,802.23
2019-02-03T07:55:29.418Z,802.25
2019-02-03T07:56:29.419Z,802.24
2019-02-03T07:57:29.425Z,802.25
2019-02-03T07:58:29.432Z,802.24
2019-02-03T07:59:29.434Z,802.24
2019-02-03T08:00:29.437Z,802.26
2019-02-03T08:01:29.440Z,802.30
2019-02-03T08:02:29.444Z,802.31
2019-02-03T08:03:29.452Z,802.36
2019-02-03T08:04:29.454Z,802.40
2019-02-03T08:05:29.455Z,802.39
2019-02-03T08:06:29.484Z,802.33
2019-02-03T08:07:29.464Z,802.40
2019-02-03T08:08:29.469Z,802.39
2019-02-03T08:09:29.470Z,802.35
2019-02-03T08:10:29.813Z,802.39
2019-02-03T08:11:29.479Z,802.42
2019-02-03T08:12:29.483Z,802.42
2019-02-03T08:13:29.488Z,802.48
2019-02-03T08:14:29.493Z,802.48
2019-02-03T08:15:29.494Z,802.51
2019-02-03T08:16:29.514Z,802.49
2019-02-03T08:17:29.504Z,802.50
2019-02-03T08:18:29.508Z,802.51
2019-02-03T08:19:29.511Z,802.53
2019-02-03T08:20:29.520Z,802.57
2019-02-03T08:21:29.517Z,802.57
2019-02-03T08:22:29.523Z,802.59
2019-02-03T08:23:29.527Z,802.64
2019-02-03T08:24:29.532Z,802.66
2019-02-03T08:25:29.537Z,802.68
2019-02-03T08:26:29.538Z,802.67
2019-02-03T08:27:29.543Z,802.71
2019-02-03T08:28:29.548Z,802.72
2019-02-03T08:29:29.552Z,802.70
2019-02-03T08:30:29.555Z,802.72
2019-02-03T08:31:29.562Z,802.73
2019-02-03T08:32:29.563Z,802.75
2019-02-03T08:33:29.567Z,802.79
2019-02-03T08:34:29.571Z,802.77
2019-02-03T08:35:29.577Z,802.77
2019-02-03T08:36:29.626Z,802.78
2019-02-03T08:37:29.584Z,802.74
2019-02-03T08:38:29.589Z,802.79
2019-02-03T08:39:29.594Z,802.82
2019-02-03T08:40:36.905Z,802.80
2019-02-03T08:41:29.601Z,802.84
2019-02-03T08:42:29.605Z,802.85
2019-02-03T08:43:29.615Z,802.91
2019-02-03T08:44:29.616Z,802.90
2019-02-03T08:45:29.620Z,802.89
2019-02-03T08:46:29.624Z,802.91
2019-02-03T08:47:29.631Z,802.92
2019-02-03T08:48:29.633Z,802.93
2019-02-03T08:49:29.638Z,802.98
2019-02-03T08:50:29.646Z,803.03
2019-02-03T08:51:32.292Z,803.00
2019-02-03T08:52:29.652Z,803.07
2019-02-03T08:53:29.656Z,803.05
2019-02-03T08:54:29.660Z,803.04
2019-02-03T08:55:29.665Z,803.06
2019-02-03T08:56:29.673Z,803.07
2019-02-03T08:57:29.674Z,803.04
2019-02-03T08:58:29.682Z,803.09
2019-02-03T08:59:29.684Z,803.12
2019-02-03T09:00:29.692Z,803.18
2019-02-03T09:01:29.693Z,803.19
2019-02-03T09:02:29.711Z,803.16
2019-02-03T09:03:29.705Z,803.21
2019-02-03T09:04:29.708Z,803.16
2019-02-03T09:05:29.711Z,803.19
2019-02-03T09:06:29.721Z,803.22
2019-02-03T09:07:29.728Z,803.26
2019-02-03T09:08:29.727Z,803.26
2019-02-03T09:09:29.730Z,803.28
2019-02-03T09:10:29.738Z,803.32
2019-02-03T09:11:29.740Z,803.34
2019-02-03T09:12:29.744Z,803.31
2019-02-03T09:13:29.752Z,803.35
2019-02-03T09:14:29.758Z,803.35
2019-02-03T09:15:29.759Z,803.35
2019-02-03T09:16:29.765Z,803.34
2019-02-03T09:17:29.769Z,803.37
2019-02-03T09:18:29.774Z,803.41
2019-02-03T09:19:29.780Z,803.42
2019-02-03T09:20:29.782Z,803.40
2019-02-03T09:21:29.790Z,803.47
2019-02-03T09:22:29.791Z,803.44
2019-02-03T09:23:29.801Z,803.46
2019-02-03T09:24:29.800Z,803.47
2019-02-03T09:25:29.807Z,803.47
2019-02-03T09:26:29.809Z,803.49
2019-02-03T09:27:29.815Z,803.50
2019-02-03T09:28:29.821Z,803.53
2019-02-03T09:29:29.823Z,803.54
2019-02-03T09:30:29.829Z,803.57
2019-02-03T09:31:29.834Z,803.58
2019-02-03T09:32:29.837Z,803.60
2019-02-03T09:33:29.846Z,803.59
2019-02-03T09:34:29.846Z,803.58
2019-02-03T09:35:29.852Z,803.58
2019-02-03T09:36:29.856Z,803.60
2019-02-03T09:37:29.865Z,803.67
2019-02-03T09:38:29.865Z,803.65
2019-02-03T09:39:29.874Z,803.69
2019-02-03T09:40:29.877Z,803.71
2019-02-03T09:41:29.885Z,803.79
2019-02-03T09:42:29.887Z,803.74
2019-02-03T09:43:29.892Z,803.76
2019-02-03T09:44:29.896Z,803.85
2019-02-03T09:45:29.904Z,803.82
2019-02-03T09:46:29.904Z,803.80
2019-02-03T09:47:29.909Z,803.82
2019-02-03T09:48:29.917Z,803.88
2019-02-03T09:49:29.919Z,803.81
2019-02-03T09:50:29.924Z,803.88
2019-02-03T09:51:29.931Z,803.89
2019-02-03T09:52:29.932Z,803.89
2019-02-03T09:53:29.938Z,803.91
2019-02-03T09:54:29.941Z,803.91
2019-02-03T09:55:29.947Z,803.96
2019-02-03T09:56:29.954Z,803.98
2019-02-03T09:57:29.959Z,804.00
2019-02-03T09:58:29.969Z,804.07
2019-02-03T09:59:29.967Z,804.04
2019-02-03T10:00:29.976Z,804.01
2019-02-03T10:01:29.978Z,804.03
2019-02-03T10:02:29.984Z,804.04
2019-02-03T10:03:29.989Z,804.06
2019-02-03T10:04:29.990Z,804.11
2019-02-03T10:05:29.995Z,804.09
2019-02-03T10:06:30.000Z,804.11
2019-02-03T10:07:30.011Z,804.14
2019-02-03T10:08:40.343Z,804.13
2019-02-03T10:09:30.019Z,804.19
2019-02-03T10:10:30.023Z,804.14
2019-02-03T10:11:30.026Z,804.21
2019-02-03T10:12:30.031Z,804.21
2019-02-03T10:13:30.034Z,804.24
2019-02-03T10:14:30.039Z,804.21
2019-02-03T10:15:30.046Z,804.23
2019-02-03T10:16:30.050Z,804.25
2019-02-03T10:17:30.058Z,804.26
2019-02-03T10:18:30.060Z,804.26
2019-02-03T10:19:30.067Z,804.26
2019-02-03T10:20:30.071Z,804.22
2019-02-03T10:21:30.072Z,804.28
2019-02-03T10:22:30.077Z,804.28
2019-02-03T10:23:30.088Z,804.32
2019-02-03T10:24:41.685Z,804.34
2019-02-03T10:25:30.091Z,804.37
2019-02-03T10:26:30.100Z,804.38
2019-02-03T10:27:30.102Z,804.40
2019-02-03T10:28:30.109Z,804.39
2019-02-03T10:29:30.112Z,804.36
2019-02-03T10:30:30.120Z,804.40
2019-02-03T10:31:30.124Z,804.40
2019-02-03T10:32:30.409Z,804.45
2019-02-03T10:33:30.135Z,804.49
2019-02-03T10:34:30.137Z,804.50
2019-02-03T10:35:30.145Z,804.51
2019-02-03T10:36:30.249Z,804.47
2019-02-03T10:37:30.152Z,804.50
2019-02-03T10:38:30.161Z,804.52
2019-02-03T10:39:33.005Z,804.53
2019-02-03T10:40:30.172Z,804.48
2019-02-03T10:41:30.174Z,804.54
2019-02-03T10:42:30.180Z,804.57
2019-02-03T10:43:30.183Z,804.60
2019-02-03T10:44:30.187Z,804.59
2019-02-03T10:45:30.206Z,804.60
2019-02-03T10:46:30.198Z,804.57
2019-02-03T10:47:30.208Z,804.63
2019-02-03T10:48:30.210Z,804.62
2019-02-03T10:49:30.214Z,804.57
2019-02-03T10:50:30.223Z,804.58
2019-02-03T10:51:30.226Z,804.58
2019-02-03T10:52:30.229Z,804.53
2019-02-03T10:53:30.233Z,804.61
2019-02-03T10:54:30.291Z,804.63
2019-02-03T10:55:30.245Z,804.64
2019-02-03T10:56:30.248Z,804.65
2019-02-03T10:57:30.258Z,804.65
2019-02-03T10:58:30.260Z,804.70
2019-02-03T10:59:30.266Z,804.67
2019-02-03T11:00:30.269Z,804.72
2019-02-03T11:01:30.273Z,804.74
2019-02-03T11:02:30.278Z,804.74
2019-02-03T11:03:30.288Z,804.79
2019-02-03T11:04:30.287Z,804.78
2019-02-03T11:05:30.291Z,804.75
2019-02-03T11:06:30.297Z,804.78
2019-02-03T11:07:30.302Z,804.82
2019-02-03T11:08:30.306Z,804.75
2019-02-03T11:09:30.313Z,804.78
2019-02-03T11:10:30.321Z,804.82
2019-02-03T11:11:36.767Z,804.81
2019-02-03T11:12:30.324Z,804.81
2019-02-03T11:13:30.333Z,804.81
2019-02-03T11:14:30.345Z,804.83
2019-02-03T11:15:30.344Z,804.80
2019-02-03T11:16:30.347Z,804.85
2019-02-03T11:17:30.350Z,804.83
2019-02-03T11:18:30.366Z,804.85
2019-02-03T11:19:30.361Z,804.84
2019-02-03T11:20:30.367Z,804.84
2019-02-03T11:21:30.372Z,804.85
2019-02-03T11:22:30.382Z,804.86
2019-02-03T11:23:30.384Z,804.92
2019-02-03T11:24:30.386Z,804.90
2019-02-03T11:25:30.391Z,804.91
2019-02-03T11:26:30.397Z,804.92
2019-02-03T11:27:30.404Z,804.91
2019-02-03T11:28:30.406Z,804.92
2019-02-03T11:29:30.413Z,804.98
2019-02-03T11:30:30.414Z,804.94
2019-02-03T11:31:30.422Z,804.94
2019-02-03T11:32:30.429Z,804.98
2019-02-03T11:33:30.433Z,804.90
2019-02-03T11:34:30.436Z,804.89
2019-02-03T11:35:30.443Z,804.90
2019-02-03T11:36:30.448Z,804.96
2019-02-03T11:37:30.451Z,804.96
2019-02-03T11:38:30.461Z,805.01
2019-02-03T11:39:30.462Z,805.01
2019-02-03T11:40:30.468Z,805.04
2019-02-03T11:41:30.473Z,805.01
2019-02-03T11:42:30.483Z,805.06
2019-02-03T11:43:30.487Z,805.06
2019-02-03T11:44:30.486Z,805.12
2019-02-03T11:45:30.491Z,805.14
2019-02-03T11:46:30.497Z,805.15
2019-02-03T11:47:30.502Z,805.09
2019-02-03T11:48:30.510Z,805.08
2019-02-03T11:49:30.511Z,805.17
2019-02-03T11:50:30.515Z,805.14
2019-02-03T11:51:30.524Z,805.17
2019-02-03T11:52:30.530Z,805.27
2019-02-03T11:53:30.531Z,805.28
2019-02-03T11:54:30.543Z,805.22
2019-02-03T11:55:30.546Z,805.25
2019-02-03T11:56:30.551Z,805.25
2019-02-03T11:57:30.555Z,805.26
2019-02-03T11:58:30.562Z,805.30
2019-02-03T11:59:30.564Z,805.37
2019-02-03T12:00:30.569Z,805.39
2019-02-03T12:01:30.577Z,805.37
2019-02-03T12:02:41.503Z,805.35
2019-02-03T12:03:30.585Z,805.36
2019-02-03T12:04:30.592Z,805.38
2019-02-03T12:05:30.596Z,805.38
2019-02-03T12:06:30.603Z,805.42
2019-02-03T12:07:30.609Z,805.45
2019-02-03T12:08:30.611Z,805.47
2019-02-03T12:09:30.617Z,805.44
2019-02-03T12:10:30.624Z,805.43
2019-02-03T12:11:30.628Z,805.43
2019-02-03T12:12:30.634Z,805.45
2019-02-03T12:13:30.639Z,805.43
2019-02-03T12:14:30.648Z,805.40
2019-02-03T12:15:30.654Z,805.44
2019-02-03T12:16:30.656Z,805.50
2019-02-03T12:17:30.662Z,805.49
2019-02-03T12:18:30.666Z,805.53
2019-02-03T12:19:30.673Z,805.53
2019-02-03T12:20:30.681Z,805.56
2019-02-03T12:21:30.685Z,805.58
2019-02-03T12:22:30.690Z,805.53
2019-02-03T12:23:30.697Z,805.54
2019-02-03T12:24:30.705Z,805.55
2019-02-03T12:25:30.711Z,805.56
2019-02-03T12:26:30.713Z,805.54
2019-02-03T12:27:30.722Z,805.57
2019-02-03T12:28:30.724Z,805.62